CEB920 RPVE-RPLL
Flight info
| Callsign | CEB920 |
|---|---|
| Flight time | 0h 39m |
| Altitude | 26000 |
| Route | MINOR8A MINOR B473 LAIYA LAIYA5R |
| Aircraft | A320/M-SDE3FGHIRWY/LB1 |
Departure
| Time | 2026-04-19 03:36 |
|---|---|
| Airport | Godofredo P. Ramos Airport (RPVE) |
Arrival
| Time | 2026-04-19 04:15 |
|---|---|
| Airport | Ninoy Aquino International Airport (RPLL) |
| Time | Latitude | Longitude | Altitude | Speed | Heading |
|---|---|---|---|---|---|
| 2026-04-19 03:16 | 11.92673 | 121.96371 | 26 ft | 0 kts | 153° |
| 2026-04-19 03:24 | 11.92688 | 121.96364 | 29 ft | 4 kts | 165° |
| 2026-04-19 03:24 | 11.92712 | 121.96363 | 25 ft | 4 kts | 209° |
| 2026-04-19 03:25 | 11.92724 | 121.96374 | 27 ft | 1 kts | 243° |
| 2026-04-19 03:29 | 11.92701 | 121.96327 | 25 ft | 11 kts | 243° |
| 2026-04-19 03:29 | 11.92686 | 121.96299 | 26 ft | 10 kts | 243° |
| 2026-04-19 03:29 | 11.92656 | 121.96238 | 26 ft | 8 kts | 243° |
| 2026-04-19 03:30 | 11.92658 | 121.96197 | 26 ft | 5 kts | 311° |
| 2026-04-19 03:30 | 11.92698 | 121.96174 | 26 ft | 13 kts | 334° |
| 2026-04-19 03:30 | 11.92759 | 121.96144 | 26 ft | 9 kts | 334° |
| 2026-04-19 03:30 | 11.92804 | 121.96112 | 28 ft | 7 kts | 303° |
| 2026-04-19 03:31 | 11.92793 | 121.96068 | 27 ft | 10 kts | 242° |
| 2026-04-19 03:31 | 11.92745 | 121.95972 | 27 ft | 20 kts | 242° |
| 2026-04-19 03:31 | 11.92673 | 121.95829 | 27 ft | 25 kts | 243° |
| 2026-04-19 03:31 | 11.92584 | 121.95653 | 29 ft | 29 kts | 243° |
| 2026-04-19 03:32 | 11.92488 | 121.95462 | 25 ft | 31 kts | 243° |
| 2026-04-19 03:32 | 11.92388 | 121.95262 | 24 ft | 33 kts | 242° |
| 2026-04-19 03:32 | 11.92305 | 121.95097 | 29 ft | 15 kts | 238° |
| 2026-04-19 03:32 | 11.92255 | 121.95044 | 27 ft | 8 kts | 221° |
| 2026-04-19 03:33 | 11.92244 | 121.95013 | 27 ft | 2 kts | 311° |
| 2026-04-19 03:33 | 11.92259 | 121.95009 | 27 ft | 1 kts | 357° |
| 2026-04-19 03:33 | 11.92263 | 121.95014 | 27 ft | 1 kts | 39° |
| 2026-04-19 03:33 | 11.92266 | 121.95022 | 28 ft | 1 kts | 65° |
| 2026-04-19 03:34 | 11.92267 | 121.95024 | 28 ft | 0 kts | 64° |
| 2026-04-19 03:35 | 11.92268 | 121.95025 | 28 ft | 3 kts | 64° |
| 2026-04-19 03:35 | 11.92399 | 121.95288 | 26 ft | 81 kts | 63° |
| 2026-04-19 03:35 | 11.92761 | 121.96007 | 28 ft | 144 kts | 63° |
| 2026-04-19 03:35 | 11.93280 | 121.97008 | 394 ft | 162 kts | 63° |
| 2026-04-19 03:36 | 11.93807 | 121.98026 | 1193 ft | 164 kts | 64° |
| 2026-04-19 03:36 | 11.94347 | 121.99108 | 1788 ft | 179 kts | 64° |
| 2026-04-19 03:36 | 11.94928 | 122.00283 | 2300 ft | 193 kts | 63° |
| 2026-04-19 03:36 | 11.95561 | 122.01561 | 2740 ft | 211 kts | 63° |
| 2026-04-19 03:37 | 11.96409 | 122.02837 | 3316 ft | 223 kts | 41° |
| 2026-04-19 03:37 | 11.97772 | 122.03686 | 3933 ft | 239 kts | 27° |
| 2026-04-19 03:37 | 11.99316 | 122.04463 | 4484 ft | 256 kts | 27° |
| 2026-04-19 03:37 | 12.00934 | 122.05271 | 5159 ft | 266 kts | 27° |
| 2026-04-19 03:38 | 12.02607 | 122.06109 | 5955 ft | 271 kts | 27° |
| 2026-04-19 03:38 | 12.04321 | 122.06969 | 6712 ft | 277 kts | 27° |
| 2026-04-19 03:38 | 12.06065 | 122.07846 | 7469 ft | 281 kts | 27° |
| 2026-04-19 03:38 | 12.07829 | 122.08735 | 8268 ft | 284 kts | 28° |
| 2026-04-19 03:39 | 12.09610 | 122.09635 | 9098 ft | 287 kts | 28° |
| 2026-04-19 03:39 | 12.11405 | 122.10547 | 9905 ft | 290 kts | 28° |
| 2026-04-19 03:39 | 12.13245 | 122.11481 | 10450 ft | 302 kts | 28° |
| 2026-04-19 03:39 | 12.15180 | 122.12463 | 10831 ft | 319 kts | 27° |
| 2026-04-19 03:40 | 12.17216 | 122.13497 | 11245 ft | 333 kts | 27° |
| 2026-04-19 03:40 | 12.19305 | 122.14556 | 11892 ft | 337 kts | 27° |
| 2026-04-19 03:40 | 12.21414 | 122.15625 | 12604 ft | 340 kts | 27° |
| 2026-04-19 03:40 | 12.23539 | 122.16704 | 13305 ft | 342 kts | 26° |
| 2026-04-19 03:41 | 12.25680 | 122.17791 | 13956 ft | 345 kts | 26° |
| 2026-04-19 03:41 | 12.27840 | 122.18886 | 14512 ft | 349 kts | 26° |
| 2026-04-19 03:41 | 12.30025 | 122.19991 | 15058 ft | 352 kts | 26° |
| 2026-04-19 03:41 | 12.32246 | 122.21084 | 15582 ft | 356 kts | 22° |
| 2026-04-19 03:42 | 12.34615 | 122.21749 | 16110 ft | 360 kts | 8° |
| 2026-04-19 03:42 | 12.37129 | 122.21795 | 16621 ft | 365 kts | 353° |
| 2026-04-19 03:42 | 12.39606 | 122.21185 | 17143 ft | 370 kts | 339° |
| 2026-04-19 03:42 | 12.41890 | 122.19951 | 17658 ft | 374 kts | 326° |
| 2026-04-19 03:43 | 12.44051 | 122.18444 | 18164 ft | 378 kts | 326° |
| 2026-04-19 03:43 | 12.46236 | 122.16923 | 18624 ft | 381 kts | 326° |
| 2026-04-19 03:43 | 12.48438 | 122.15394 | 19081 ft | 384 kts | 326° |
| 2026-04-19 03:43 | 12.50660 | 122.13851 | 19536 ft | 387 kts | 326° |
| 2026-04-19 03:44 | 12.52901 | 122.12299 | 19988 ft | 390 kts | 326° |
| 2026-04-19 03:44 | 12.55160 | 122.10733 | 20443 ft | 394 kts | 326° |
| 2026-04-19 03:44 | 12.57435 | 122.09153 | 20892 ft | 397 kts | 326° |
| 2026-04-19 03:44 | 12.59726 | 122.07559 | 21331 ft | 400 kts | 326° |
| 2026-04-19 03:45 | 12.62037 | 122.05949 | 21774 ft | 403 kts | 325° |
| 2026-04-19 03:45 | 12.64364 | 122.04328 | 22213 ft | 406 kts | 325° |
| 2026-04-19 03:45 | 12.66712 | 122.02693 | 22647 ft | 410 kts | 325° |
| 2026-04-19 03:45 | 12.69079 | 122.01046 | 23078 ft | 413 kts | 325° |
| 2026-04-19 03:46 | 12.71463 | 121.99388 | 23496 ft | 416 kts | 325° |
| 2026-04-19 03:46 | 12.73868 | 121.97715 | 23838 ft | 419 kts | 325° |
| 2026-04-19 03:46 | 12.76287 | 121.96030 | 24173 ft | 422 kts | 325° |
| 2026-04-19 03:46 | 12.78725 | 121.94330 | 24516 ft | 425 kts | 325° |
| 2026-04-19 03:47 | 12.81173 | 121.92626 | 24851 ft | 427 kts | 325° |
| 2026-04-19 03:47 | 12.83603 | 121.90936 | 25193 ft | 429 kts | 325° |
| 2026-04-19 03:47 | 12.86077 | 121.89213 | 25538 ft | 431 kts | 325° |
| 2026-04-19 03:47 | 12.88561 | 121.87483 | 25847 ft | 433 kts | 325° |
| 2026-04-19 03:48 | 12.91050 | 121.85750 | 25936 ft | 428 kts | 325° |
| 2026-04-19 03:48 | 12.93457 | 121.84070 | 25958 ft | 411 kts | 325° |
| 2026-04-19 03:48 | 12.95811 | 121.82426 | 25956 ft | 409 kts | 325° |
| 2026-04-19 03:48 | 12.98166 | 121.80782 | 25956 ft | 409 kts | 325° |
| 2026-04-19 03:49 | 13.00517 | 121.79137 | 25957 ft | 409 kts | 325° |
| 2026-04-19 03:49 | 13.02871 | 121.77490 | 25957 ft | 409 kts | 325° |
| 2026-04-19 03:49 | 13.05223 | 121.75846 | 25957 ft | 409 kts | 325° |
| 2026-04-19 03:49 | 13.07575 | 121.74203 | 25956 ft | 409 kts | 325° |
| 2026-04-19 03:50 | 13.09931 | 121.72560 | 25954 ft | 409 kts | 325° |
| 2026-04-19 03:50 | 13.12284 | 121.70917 | 25954 ft | 409 kts | 324° |
| 2026-04-19 03:50 | 13.14636 | 121.69274 | 25960 ft | 409 kts | 324° |
| 2026-04-19 03:50 | 13.16988 | 121.67628 | 25960 ft | 409 kts | 324° |
| 2026-04-19 03:51 | 13.19339 | 121.65984 | 25963 ft | 409 kts | 324° |
| 2026-04-19 03:51 | 13.21662 | 121.64359 | 25966 ft | 409 kts | 325° |
| 2026-04-19 03:51 | 13.24016 | 121.62714 | 25968 ft | 409 kts | 325° |
| 2026-04-19 03:51 | 13.26365 | 121.61073 | 25969 ft | 409 kts | 325° |
| 2026-04-19 03:52 | 13.28716 | 121.59427 | 25969 ft | 409 kts | 324° |
| 2026-04-19 03:52 | 13.31065 | 121.57782 | 25966 ft | 409 kts | 324° |
| 2026-04-19 03:52 | 13.33413 | 121.56138 | 25966 ft | 409 kts | 324° |
| 2026-04-19 03:52 | 13.35763 | 121.54492 | 25965 ft | 409 kts | 324° |
| 2026-04-19 03:53 | 13.38108 | 121.52848 | 25965 ft | 409 kts | 324° |
| 2026-04-19 03:53 | 13.40457 | 121.51198 | 25964 ft | 409 kts | 324° |
| 2026-04-19 03:53 | 13.42802 | 121.49553 | 25962 ft | 408 kts | 324° |
| 2026-04-19 03:53 | 13.45148 | 121.47908 | 25961 ft | 408 kts | 324° |
| 2026-04-19 03:54 | 13.47495 | 121.46262 | 25961 ft | 408 kts | 324° |
| 2026-04-19 03:54 | 13.49842 | 121.44618 | 25957 ft | 408 kts | 324° |
| 2026-04-19 03:54 | 13.52187 | 121.42973 | 25959 ft | 408 kts | 324° |
| 2026-04-19 03:54 | 13.54537 | 121.41323 | 25955 ft | 411 kts | 324° |
| 2026-04-19 03:55 | 13.56931 | 121.39642 | 25893 ft | 420 kts | 324° |
| 2026-04-19 03:55 | 13.59319 | 121.37938 | 25780 ft | 414 kts | 323° |
| 2026-04-19 03:55 | 13.61624 | 121.36242 | 25666 ft | 400 kts | 323° |
| 2026-04-19 03:55 | 13.63836 | 121.34583 | 25535 ft | 387 kts | 323° |
| 2026-04-19 03:56 | 13.65985 | 121.32958 | 25234 ft | 381 kts | 322° |
| 2026-04-19 03:56 | 13.68102 | 121.31354 | 24834 ft | 377 kts | 322° |
| 2026-04-19 03:56 | 13.70210 | 121.29764 | 24412 ft | 374 kts | 323° |
| 2026-04-19 03:56 | 13.72305 | 121.28193 | 23996 ft | 371 kts | 323° |
| 2026-04-19 03:57 | 13.74387 | 121.26639 | 23597 ft | 368 kts | 323° |
| 2026-04-19 03:57 | 13.76453 | 121.25102 | 23146 ft | 365 kts | 323° |
| 2026-04-19 03:57 | 13.78500 | 121.23580 | 22705 ft | 362 kts | 323° |
| 2026-04-19 03:57 | 13.80530 | 121.22068 | 22277 ft | 358 kts | 323° |
| 2026-04-19 03:58 | 13.82536 | 121.20572 | 21867 ft | 355 kts | 324° |
| 2026-04-19 03:58 | 13.84524 | 121.19088 | 21476 ft | 351 kts | 324° |
| 2026-04-19 03:58 | 13.86468 | 121.17639 | 21088 ft | 348 kts | 324° |
| 2026-04-19 03:58 | 13.88444 | 121.16165 | 20701 ft | 345 kts | 324° |
| 2026-04-19 03:59 | 13.90348 | 121.14742 | 20329 ft | 342 kts | 324° |
| 2026-04-19 03:59 | 13.92262 | 121.13309 | 19957 ft | 339 kts | 324° |
| 2026-04-19 03:59 | 13.94159 | 121.11887 | 19584 ft | 336 kts | 324° |
| 2026-04-19 03:59 | 13.96045 | 121.10475 | 19216 ft | 334 kts | 324° |
| 2026-04-19 04:00 | 13.97917 | 121.09074 | 18841 ft | 332 kts | 324° |
| 2026-04-19 04:00 | 13.99780 | 121.07681 | 18474 ft | 330 kts | 325° |
| 2026-04-19 04:00 | 14.01632 | 121.06301 | 18106 ft | 327 kts | 325° |
| 2026-04-19 04:00 | 14.03467 | 121.04934 | 17703 ft | 325 kts | 325° |
| 2026-04-19 04:01 | 14.05291 | 121.03574 | 17307 ft | 323 kts | 325° |
| 2026-04-19 04:01 | 14.08899 | 121.00873 | 16526 ft | 319 kts | 325° |
| 2026-04-19 04:01 | 14.10688 | 120.99534 | 16156 ft | 317 kts | 325° |
| 2026-04-19 04:02 | 14.12463 | 120.98204 | 15783 ft | 315 kts | 325° |
| 2026-04-19 04:02 | 14.14234 | 120.96877 | 15458 ft | 313 kts | 325° |
| 2026-04-19 04:02 | 14.15964 | 120.95580 | 15343 ft | 303 kts | 325° |
| 2026-04-19 04:02 | 14.17669 | 120.94363 | 15215 ft | 293 kts | 331° |
| 2026-04-19 04:03 | 14.19420 | 120.93340 | 15047 ft | 287 kts | 331° |
| 2026-04-19 04:03 | 14.21145 | 120.92324 | 14770 ft | 285 kts | 331° |
| 2026-04-19 04:03 | 14.22861 | 120.91311 | 14471 ft | 284 kts | 332° |
| 2026-04-19 04:03 | 14.24590 | 120.90285 | 14190 ft | 282 kts | 330° |
| 2026-04-19 04:04 | 14.26016 | 120.88956 | 14072 ft | 276 kts | 301° |
| 2026-04-19 04:04 | 14.26497 | 120.87092 | 13955 ft | 271 kts | 267° |
| 2026-04-19 04:04 | 14.25947 | 120.85264 | 13780 ft | 269 kts | 245° |
| 2026-04-19 04:04 | 14.25063 | 120.83591 | 13447 ft | 270 kts | 241° |
| 2026-04-19 04:05 | 14.24089 | 120.81936 | 13040 ft | 271 kts | 239° |
| 2026-04-19 04:05 | 14.23100 | 120.80292 | 12792 ft | 268 kts | 240° |
| 2026-04-19 04:05 | 14.22160 | 120.78638 | 12397 ft | 270 kts | 249° |
| 2026-04-19 04:05 | 14.21910 | 120.76755 | 11772 ft | 268 kts | 284° |
| 2026-04-19 04:06 | 14.22744 | 120.75087 | 11095 ft | 264 kts | 320° |
| 2026-04-19 04:06 | 14.24276 | 120.74048 | 10380 ft | 268 kts | 333° |
| 2026-04-19 04:06 | 14.25939 | 120.73107 | 9561 ft | 278 kts | 333° |
| 2026-04-19 04:06 | 14.27667 | 120.72136 | 8651 ft | 287 kts | 332° |
| 2026-04-19 04:07 | 14.29442 | 120.71127 | 7704 ft | 296 kts | 332° |
| 2026-04-19 04:07 | 14.31348 | 120.70297 | 6721 ft | 301 kts | 353° |
| 2026-04-19 04:07 | 14.33405 | 120.70501 | 5732 ft | 300 kts | 24° |
| 2026-04-19 04:07 | 14.35058 | 120.71769 | 4758 ft | 299 kts | 54° |
| 2026-04-19 04:08 | 14.36072 | 120.73551 | 4447 ft | 275 kts | 66° |
| 2026-04-19 04:08 | 14.36559 | 120.74708 | 4364 ft | 257 kts | 69° |
| 2026-04-19 04:08 | 14.37409 | 120.76846 | 4173 ft | 227 kts | 68° |
| 2026-04-19 04:08 | 14.37822 | 120.77819 | 3935 ft | 221 kts | 66° |
| 2026-04-19 04:09 | 14.38476 | 120.79247 | 3446 ft | 219 kts | 64° |
| 2026-04-19 04:09 | 14.39163 | 120.80647 | 3063 ft | 218 kts | 63° |
| 2026-04-19 04:09 | 14.39863 | 120.82010 | 2998 ft | 205 kts | 62° |
| 2026-04-19 04:09 | 14.40504 | 120.83214 | 3026 ft | 177 kts | 62° |
| 2026-04-19 04:10 | 14.41069 | 120.84257 | 2853 ft | 159 kts | 62° |
| 2026-04-19 04:10 | 14.41752 | 120.85509 | 2628 ft | 145 kts | 62° |
| 2026-04-19 04:10 | 14.42247 | 120.86410 | 2358 ft | 143 kts | 61° |
| 2026-04-19 04:10 | 14.42581 | 120.87019 | 2284 ft | 145 kts | 62° |
| 2026-04-19 04:11 | 14.43083 | 120.87928 | 2138 ft | 146 kts | 62° |
| 2026-04-19 04:11 | 14.43346 | 120.88406 | 2062 ft | 145 kts | 62° |
| 2026-04-19 04:11 | 14.43683 | 120.89018 | 1969 ft | 146 kts | 60° |
| 2026-04-19 04:11 | 14.44180 | 120.89914 | 1879 ft | 147 kts | 60° |
| 2026-04-19 04:12 | 14.44682 | 120.90823 | 1819 ft | 145 kts | 61° |
| 2026-04-19 04:12 | 14.45184 | 120.91730 | 1750 ft | 146 kts | 62° |
| 2026-04-19 04:12 | 14.45687 | 120.92639 | 1690 ft | 146 kts | 61° |
| 2026-04-19 04:12 | 14.46192 | 120.93546 | 1477 ft | 144 kts | 62° |
| 2026-04-19 04:13 | 14.46693 | 120.94450 | 1293 ft | 145 kts | 62° |
| 2026-04-19 04:13 | 14.47194 | 120.95352 | 1107 ft | 145 kts | 62° |
| 2026-04-19 04:13 | 14.47693 | 120.96250 | 834 ft | 143 kts | 61° |
| 2026-04-19 04:13 | 14.48192 | 120.97134 | 653 ft | 142 kts | 63° |
| 2026-04-19 04:14 | 14.48685 | 120.98018 | 500 ft | 142 kts | 61° |
| 2026-04-19 04:14 | 14.49177 | 120.98906 | 337 ft | 143 kts | 63° |
| 2026-04-19 04:14 | 14.49667 | 120.99790 | 173 ft | 141 kts | 63° |
| 2026-04-19 04:14 | 14.50155 | 121.00668 | 61 ft | 135 kts | 62° |
| 2026-04-19 04:15 | 14.50496 | 121.01293 | 66 ft | 57 kts | 61° |
| 2026-04-19 04:15 | 14.50649 | 121.01569 | 68 ft | 29 kts | 60° |
| 2026-04-19 04:15 | 14.50752 | 121.01700 | 67 ft | 23 kts | 43° |
| 2026-04-19 04:15 | 14.50839 | 121.01774 | 66 ft | 9 kts | 34° |
| 2026-04-19 04:16 | 14.50885 | 121.01781 | 59 ft | 6 kts | 337° |
| 2026-04-19 04:16 | 14.50914 | 121.01759 | 67 ft | 5 kts | 317° |
| 2026-04-19 04:16 | 14.50933 | 121.01739 | 68 ft | 3 kts | 315° |
| 2026-04-19 04:16 | 14.50949 | 121.01727 | 68 ft | 2 kts | 329° |
| 2026-04-19 04:17 | 14.50960 | 121.01724 | 66 ft | 2 kts | 353° |
| 2026-04-19 04:17 | 14.50976 | 121.01729 | 66 ft | 3 kts | 30° |
| 2026-04-19 04:17 | 14.50991 | 121.01749 | 62 ft | 4 kts | 57° |
| 2026-04-19 04:17 | 14.51017 | 121.01797 | 67 ft | 10 kts | 60° |
| 2026-04-19 04:18 | 14.51051 | 121.01854 | 69 ft | 4 kts | 52° |
| 2026-04-19 04:18 | 14.51090 | 121.01859 | 67 ft | 8 kts | 334° |
| 2026-04-19 04:18 | 14.51129 | 121.01823 | 69 ft | 7 kts | 315° |
| 2026-04-19 04:18 | 14.51172 | 121.01778 | 64 ft | 10 kts | 315° |
| 2026-04-19 04:19 | 14.51221 | 121.01729 | 66 ft | 10 kts | 315° |
| 2026-04-19 04:19 | 14.51284 | 121.01663 | 63 ft | 14 kts | 315° |
| 2026-04-19 04:19 | 14.51350 | 121.01595 | 69 ft | 12 kts | 315° |
| 2026-04-19 04:19 | 14.51391 | 121.01569 | 65 ft | 6 kts | 357° |
| 2026-04-19 04:20 | 14.51425 | 121.01588 | 69 ft | 5 kts | 36° |
| 2026-04-19 04:20 | 14.51455 | 121.01590 | 62 ft | 6 kts | 332° |
| 2026-04-19 04:20 | 14.51493 | 121.01552 | 67 ft | 12 kts | 314° |
| 2026-04-19 04:20 | 14.51557 | 121.01486 | 67 ft | 13 kts | 315° |
| 2026-04-19 04:21 | 14.51597 | 121.01453 | 64 ft | 6 kts | 338° |
| 2026-04-19 04:21 | 14.51617 | 121.01466 | 61 ft | 3 kts | 56° |
| 2026-04-19 04:21 | 14.51630 | 121.01484 | 67 ft | 6 kts | 49° |
| 2026-04-19 04:21 | 14.51660 | 121.01515 | 66 ft | 4 kts | 44° |
| 2026-04-19 04:22 | 14.51663 | 121.01517 | 63 ft | 0 kts | 44° |